createdAt,value
2018-08-22T00:00:11.273Z,0.00
2018-08-22T00:01:11.270Z,0.00
2018-08-22T00:02:11.268Z,0.00
2018-08-22T00:03:11.268Z,0.00
2018-08-22T00:04:11.271Z,0.00
2018-08-22T00:05:11.271Z,0.00
2018-08-22T00:06:11.272Z,0.00
2018-08-22T00:07:11.272Z,0.00
2018-08-22T00:08:11.276Z,0.00
2018-08-22T00:09:11.277Z,0.00
2018-08-22T00:10:11.275Z,0.00
2018-08-22T00:11:11.276Z,0.00
2018-08-22T00:12:11.277Z,0.00
2018-08-22T00:13:11.282Z,0.00
2018-08-22T00:14:11.280Z,0.00
2018-08-22T00:15:11.337Z,0.00
2018-08-22T00:16:11.282Z,0.00
2018-08-22T00:17:11.286Z,0.00
2018-08-22T00:18:11.285Z,0.00
2018-08-22T00:19:11.294Z,0.00
2018-08-22T00:20:11.288Z,0.00
2018-08-22T00:21:11.290Z,0.00
2018-08-22T00:22:11.289Z,0.00
2018-08-22T00:23:11.292Z,0.00
2018-08-22T00:24:11.291Z,0.00
2018-08-22T00:25:11.304Z,0.00
2018-08-22T00:26:11.292Z,0.00
2018-08-22T00:27:11.293Z,0.00
2018-08-22T00:28:11.296Z,0.00
2018-08-22T00:29:11.345Z,0.00
2018-08-22T00:30:11.300Z,0.00
2018-08-22T00:31:11.299Z,0.00
2018-08-22T00:32:11.301Z,0.00
2018-08-22T00:33:11.304Z,0.00
2018-08-22T00:34:11.302Z,0.00
2018-08-22T00:35:11.301Z,0.00
2018-08-22T00:36:11.313Z,0.00
2018-08-22T00:37:11.310Z,0.00
2018-08-22T00:38:11.308Z,0.00
2018-08-22T00:39:11.309Z,0.00
2018-08-22T00:40:11.323Z,0.00
2018-08-22T00:41:11.312Z,0.00
2018-08-22T00:42:11.311Z,0.00
2018-08-22T00:43:11.313Z,0.00
2018-08-22T00:44:11.316Z,0.00
2018-08-22T00:45:11.315Z,0.00
2018-08-22T00:46:11.327Z,0.00
2018-08-22T00:47:11.318Z,0.00
2018-08-22T00:48:11.316Z,0.00
2018-08-22T00:49:11.340Z,0.00
2018-08-22T00:50:11.321Z,0.00
2018-08-22T00:51:11.322Z,0.00
2018-08-22T00:52:11.324Z,0.00
2018-08-22T00:53:11.326Z,0.00
2018-08-22T00:54:11.324Z,0.00
2018-08-22T00:55:11.328Z,0.00
2018-08-22T00:56:11.333Z,0.00
2018-08-22T00:57:11.331Z,0.00
2018-08-22T00:58:11.353Z,0.00
2018-08-22T00:59:11.335Z,0.00
2018-08-22T01:00:11.333Z,0.00
2018-08-22T01:01:11.335Z,0.00
2018-08-22T01:02:11.335Z,0.00
2018-08-22T01:03:11.346Z,0.00
2018-08-22T01:04:11.342Z,0.00
2018-08-22T01:05:11.342Z,0.00
2018-08-22T01:06:11.341Z,0.00
2018-08-22T01:07:11.342Z,0.00
2018-08-22T01:08:11.345Z,0.00
2018-08-22T01:09:11.346Z,0.00
2018-08-22T01:10:11.351Z,0.00
2018-08-22T01:11:11.345Z,0.00
2018-08-22T01:12:11.351Z,0.00
2018-08-22T01:13:11.350Z,0.00
2018-08-22T01:14:11.352Z,0.00
2018-08-22T01:15:11.353Z,0.00
2018-08-22T01:16:11.391Z,0.00
2018-08-22T01:17:11.356Z,0.00
2018-08-22T01:18:11.354Z,0.00
2018-08-22T01:19:11.357Z,0.00
2018-08-22T01:20:11.358Z,0.00
2018-08-22T01:21:11.360Z,0.00
2018-08-22T01:22:11.364Z,0.00
2018-08-22T01:23:11.362Z,0.00
2018-08-22T01:24:11.362Z,0.00
2018-08-22T01:25:11.369Z,0.00
2018-08-22T01:26:11.369Z,0.00
2018-08-22T01:27:11.374Z,0.00
2018-08-22T01:28:11.368Z,0.00
2018-08-22T01:29:11.372Z,0.00
2018-08-22T01:30:11.374Z,0.00
2018-08-22T01:31:11.375Z,0.00
2018-08-22T01:32:11.373Z,0.00
2018-08-22T01:33:11.375Z,0.00
2018-08-22T01:34:11.381Z,0.00
2018-08-22T01:35:11.382Z,0.00
2018-08-22T01:36:11.381Z,0.00
2018-08-22T01:37:11.396Z,0.00
2018-08-22T01:38:11.382Z,0.00
2018-08-22T01:39:11.385Z,0.00
2018-08-22T01:40:11.388Z,0.00
2018-08-22T01:41:11.390Z,0.00
2018-08-22T01:42:11.385Z,0.00
2018-08-22T01:43:11.389Z,0.00
2018-08-22T01:44:11.390Z,0.00
2018-08-22T01:45:11.392Z,0.00
2018-08-22T01:46:11.391Z,0.00
2018-08-22T01:47:11.393Z,0.00
2018-08-22T01:48:11.399Z,0.00
2018-08-22T01:49:11.396Z,0.00
2018-08-22T01:50:11.400Z,0.00
2018-08-22T01:51:11.402Z,0.00
2018-08-22T01:52:11.407Z,0.00
2018-08-22T01:53:11.404Z,0.00
2018-08-22T01:54:11.405Z,0.00
2018-08-22T01:55:11.427Z,0.00
2018-08-22T01:56:11.408Z,0.00
2018-08-22T01:57:11.409Z,0.00
2018-08-22T01:58:11.419Z,0.00
2018-08-22T01:59:11.409Z,0.00
2018-08-22T02:00:11.409Z,0.00
2018-08-22T02:01:11.420Z,0.00
2018-08-22T02:02:11.423Z,0.00
2018-08-22T02:03:11.418Z,0.00
2018-08-22T02:04:11.421Z,0.00
2018-08-22T02:05:11.421Z,0.00
2018-08-22T02:06:11.425Z,0.00
2018-08-22T02:07:11.422Z,0.00
2018-08-22T02:08:11.424Z,0.00
2018-08-22T02:09:11.427Z,0.00
2018-08-22T02:10:11.430Z,0.00
2018-08-22T02:11:11.430Z,0.00
2018-08-22T02:12:11.426Z,0.00
2018-08-22T02:13:11.430Z,0.00
2018-08-22T02:14:11.455Z,0.00
2018-08-22T02:15:11.430Z,0.00
2018-08-22T02:16:11.437Z,0.00
2018-08-22T02:17:11.434Z,0.00
2018-08-22T02:18:11.439Z,0.00
2018-08-22T02:19:11.438Z,0.00
2018-08-22T02:20:11.443Z,0.00
2018-08-22T02:21:11.442Z,0.00
2018-08-22T02:22:11.441Z,0.00
2018-08-22T02:23:11.444Z,0.00
2018-08-22T02:24:11.445Z,0.00
2018-08-22T02:25:11.461Z,0.00
2018-08-22T02:26:11.447Z,0.00
2018-08-22T02:27:11.455Z,0.00
2018-08-22T02:28:11.449Z,0.00
2018-08-22T02:29:11.453Z,0.00
2018-08-22T02:30:11.454Z,0.00
2018-08-22T02:31:11.458Z,0.00
2018-08-22T02:32:11.459Z,0.00
2018-08-22T02:33:11.461Z,0.00
2018-08-22T02:34:11.461Z,0.00
2018-08-22T02:35:11.462Z,0.00
2018-08-22T02:36:11.466Z,0.00
2018-08-22T02:37:11.465Z,0.00
2018-08-22T02:38:11.466Z,0.00
2018-08-22T02:39:11.466Z,0.00
2018-08-22T02:40:11.471Z,0.00
2018-08-22T02:41:11.471Z,0.00
2018-08-22T02:42:11.473Z,0.00
2018-08-22T02:43:11.483Z,0.00
2018-08-22T02:44:11.476Z,0.00
2018-08-22T02:45:11.479Z,0.00
2018-08-22T02:46:11.482Z,0.00
2018-08-22T02:47:11.485Z,0.00
2018-08-22T02:48:11.482Z,0.00
2018-08-22T02:49:11.507Z,0.00
2018-08-22T02:50:11.487Z,0.00
2018-08-22T02:51:11.484Z,0.00
2018-08-22T02:52:11.487Z,0.00
2018-08-22T02:53:11.493Z,0.00
2018-08-22T02:54:11.491Z,0.00
2018-08-22T02:55:11.495Z,0.00
2018-08-22T02:56:11.493Z,0.00
2018-08-22T02:57:11.497Z,0.00
2018-08-22T02:58:11.512Z,0.00
2018-08-22T02:59:11.502Z,0.00
2018-08-22T03:00:11.500Z,0.00
2018-08-22T03:01:11.503Z,0.00
2018-08-22T03:02:11.507Z,0.00
2018-08-22T03:03:11.505Z,0.00
2018-08-22T03:04:11.518Z,0.00
2018-08-22T03:05:11.507Z,0.00
2018-08-22T03:06:11.520Z,0.00
2018-08-22T03:07:11.509Z,0.00
2018-08-22T03:08:11.511Z,0.00
2018-08-22T03:09:11.512Z,0.00
2018-08-22T03:10:11.532Z,0.00
2018-08-22T03:11:11.513Z,0.00
2018-08-22T03:12:11.519Z,0.00
2018-08-22T03:13:11.519Z,0.00
2018-08-22T03:14:11.524Z,0.00
2018-08-22T03:15:11.524Z,0.00
2018-08-22T03:16:11.525Z,0.00
2018-08-22T03:17:11.528Z,0.00
2018-08-22T03:18:11.526Z,0.00
2018-08-22T03:19:11.529Z,0.00
2018-08-22T03:20:11.529Z,0.00
2018-08-22T03:21:11.531Z,0.00
2018-08-22T03:22:11.529Z,0.00
2018-08-22T03:23:11.533Z,0.00
2018-08-22T03:24:11.537Z,0.00
2018-08-22T03:25:11.559Z,0.00
2018-08-22T03:26:11.588Z,0.00
2018-08-22T03:27:11.538Z,0.00
2018-08-22T03:28:11.540Z,0.00
2018-08-22T03:29:11.543Z,0.00
2018-08-22T03:30:11.547Z,0.00
2018-08-22T03:31:11.547Z,0.00
2018-08-22T03:32:11.547Z,0.00
2018-08-22T03:33:11.549Z,0.00
2018-08-22T03:34:11.548Z,0.00
2018-08-22T03:35:11.552Z,0.00
2018-08-22T03:36:11.551Z,0.00
2018-08-22T03:37:11.555Z,0.00
2018-08-22T03:38:11.553Z,0.00
2018-08-22T03:39:11.575Z,0.00
2018-08-22T03:40:11.556Z,0.00
2018-08-22T03:41:11.558Z,0.00
2018-08-22T03:42:11.565Z,0.00
2018-08-22T03:43:11.566Z,0.00
2018-08-22T03:44:11.561Z,0.00
2018-08-22T03:45:11.569Z,0.00
2018-08-22T03:46:11.567Z,0.00
2018-08-22T03:47:11.568Z,0.00
2018-08-22T03:48:11.572Z,0.00
2018-08-22T03:49:13.266Z,0.00
2018-08-22T03:50:11.572Z,0.00
2018-08-22T03:51:11.573Z,0.00
2018-08-22T03:52:11.575Z,0.00
2018-08-22T03:53:11.575Z,4.00
2018-08-22T03:54:11.575Z,4.00
2018-08-22T03:55:11.576Z,0.00
2018-08-22T03:56:11.578Z,0.00
2018-08-22T03:57:11.582Z,4.00
2018-08-22T03:58:11.580Z,4.00
2018-08-22T03:59:11.588Z,4.00
2018-08-22T04:00:11.832Z,4.00
2018-08-22T04:01:11.591Z,4.00
2018-08-22T04:02:11.588Z,4.00
2018-08-22T04:03:11.600Z,8.00
2018-08-22T04:04:11.592Z,4.00
2018-08-22T04:05:11.594Z,8.00
2018-08-22T04:06:11.603Z,8.00
2018-08-22T04:07:11.606Z,8.00
2018-08-22T04:08:11.628Z,12.00
2018-08-22T04:09:11.602Z,12.00
2018-08-22T04:10:11.602Z,12.00
2018-08-22T04:11:11.608Z,16.00
2018-08-22T04:12:11.602Z,16.00
2018-08-22T04:13:11.602Z,16.00
2018-08-22T04:14:11.605Z,20.00
2018-08-22T04:15:11.606Z,20.00
2018-08-22T04:16:11.609Z,24.00
2018-08-22T04:17:11.612Z,24.00
2018-08-22T04:18:11.613Z,28.00
2018-08-22T04:19:11.614Z,28.00
2018-08-22T04:20:11.614Z,32.00
2018-08-22T04:21:11.614Z,32.00
2018-08-22T04:22:11.618Z,36.00
2018-08-22T04:23:11.617Z,40.00
2018-08-22T04:24:19.819Z,40.00
2018-08-22T04:26:05.408Z,48.00
2018-08-22T04:27:05.358Z,56.00
2018-08-22T04:28:58.269Z,64.00
2018-08-22T04:29:58.252Z,68.00
2018-08-22T04:31:51.180Z,80.00
2018-08-22T04:32:51.132Z,88.00
2018-08-22T04:34:44.056Z,100.00
2018-08-22T04:35:44.000Z,112.00
2018-08-22T04:37:38.046Z,128.00
2018-08-22T04:38:37.867Z,136.00
2018-08-22T04:40:31.455Z,156.00
2018-08-22T04:41:31.253Z,164.00
2018-08-22T04:43:24.636Z,184.00
2018-08-22T04:44:24.644Z,192.00
2018-08-22T04:45:24.613Z,200.00
2018-08-22T04:46:24.796Z,208.00
2018-08-22T04:47:24.581Z,216.00
2018-08-22T04:48:24.580Z,220.00
2018-08-22T04:49:24.614Z,232.00
2018-08-22T04:50:24.590Z,240.00
2018-08-22T04:51:24.584Z,248.00
2018-08-22T04:52:24.588Z,256.00
2018-08-22T04:53:24.623Z,264.00
2018-08-22T04:54:24.588Z,276.00
2018-08-22T04:55:27.144Z,284.00
2018-08-22T04:56:24.595Z,292.00
2018-08-22T04:57:24.596Z,300.00
2018-08-22T04:58:24.596Z,308.00
2018-08-22T04:59:24.600Z,316.00
2018-08-22T05:00:24.601Z,324.00
2018-08-22T05:01:24.604Z,328.00
2018-08-22T05:02:24.607Z,336.00
2018-08-22T05:03:24.610Z,344.00
2018-08-22T05:04:24.610Z,348.00
2018-08-22T05:05:24.610Z,360.00
2018-08-22T05:06:24.612Z,368.00
2018-08-22T05:07:24.612Z,376.00
2018-08-22T05:08:24.644Z,384.00
2018-08-22T05:09:24.622Z,396.00
2018-08-22T05:10:26.179Z,404.00
2018-08-22T05:11:24.623Z,416.00
2018-08-22T05:12:24.622Z,428.00
2018-08-22T05:13:24.625Z,444.00
2018-08-22T05:14:24.653Z,460.00
2018-08-22T05:15:24.629Z,484.00
2018-08-22T05:16:24.639Z,508.00
2018-08-22T05:17:24.635Z,528.00
2018-08-22T05:18:24.638Z,544.00
2018-08-22T05:19:24.638Z,564.00
2018-08-22T05:20:24.680Z,580.00
2018-08-22T05:21:24.639Z,600.00
2018-08-22T05:22:24.642Z,616.00
2018-08-22T05:23:24.671Z,628.00
2018-08-22T05:24:24.686Z,648.00
2018-08-22T05:25:24.650Z,660.00
2018-08-22T05:26:24.654Z,680.00
2018-08-22T05:27:24.656Z,692.00
2018-08-22T05:28:24.657Z,708.00
2018-08-22T05:29:24.663Z,728.00
2018-08-22T05:30:24.665Z,744.00
2018-08-22T05:31:24.664Z,764.00
2018-08-22T05:32:24.662Z,784.00
2018-08-22T05:33:24.671Z,812.00
2018-08-22T05:34:24.664Z,832.00
2018-08-22T05:35:24.668Z,852.00
2018-08-22T05:36:24.675Z,872.00
2018-08-22T05:37:24.672Z,896.00
2018-08-22T05:38:24.682Z,924.00
2018-08-22T05:39:24.680Z,944.00
2018-08-22T05:40:24.679Z,956.00
2018-08-22T05:41:24.683Z,968.00
2018-08-22T05:42:24.686Z,972.00
2018-08-22T05:43:24.685Z,984.00
2018-08-22T05:44:24.716Z,996.00
2018-08-22T05:45:24.689Z,1012.00
2018-08-22T05:46:24.696Z,1028.00
2018-08-22T05:47:24.696Z,1044.00
2018-08-22T05:48:24.700Z,1048.00
2018-08-22T05:49:24.697Z,1052.00
2018-08-22T05:50:24.702Z,1048.00
2018-08-22T05:51:24.729Z,1056.00
2018-08-22T05:52:24.714Z,1072.00
2018-08-22T05:53:24.708Z,1084.00
2018-08-22T05:54:24.713Z,1092.00
2018-08-22T05:55:24.715Z,1088.00
2018-08-22T05:56:24.719Z,1080.00
2018-08-22T05:57:24.760Z,1072.00
2018-08-22T05:58:24.720Z,1052.00
2018-08-22T05:59:24.725Z,1044.00
2018-08-22T06:00:24.732Z,1032.00
2018-08-22T06:01:24.729Z,1032.00
2018-08-22T06:02:24.732Z,1040.00
2018-08-22T06:03:24.763Z,1060.00
2018-08-22T06:04:24.737Z,1072.00
2018-08-22T06:05:24.740Z,1080.00
2018-08-22T06:06:24.740Z,1080.00
2018-08-22T06:07:24.747Z,1088.00
2018-08-22T06:08:24.746Z,1092.00
2018-08-22T06:09:24.750Z,1096.00
2018-08-22T06:10:24.751Z,1092.00
2018-08-22T06:11:24.764Z,1096.00
2018-08-22T06:12:24.757Z,1108.00
2018-08-22T06:13:24.760Z,1120.00
2018-08-22T06:14:24.770Z,1132.00
2018-08-22T06:15:24.768Z,1140.00
2018-08-22T06:16:24.771Z,1148.00
2018-08-22T06:17:24.773Z,1168.00
2018-08-22T06:18:24.775Z,1216.00
2018-08-22T06:19:24.784Z,1264.00
2018-08-22T06:20:24.790Z,1324.00
2018-08-22T06:21:24.788Z,1392.00
2018-08-22T06:22:24.789Z,1460.00
2018-08-22T06:23:24.819Z,1524.00
2018-08-22T06:24:24.804Z,1592.00
2018-08-22T06:25:24.802Z,1676.00
2018-08-22T06:26:24.817Z,1736.00
2018-08-22T06:27:24.804Z,2376.00
2018-08-22T06:28:24.807Z,1804.00
2018-08-22T06:29:24.811Z,1856.00
2018-08-22T06:30:24.814Z,1924.00
2018-08-22T06:31:24.816Z,2000.00
2018-08-22T06:32:24.826Z,2240.00
2018-08-22T06:33:24.823Z,2920.00
2018-08-22T06:34:24.825Z,2988.00
2018-08-22T06:35:24.828Z,3124.00
2018-08-22T06:36:24.925Z,2852.00
2018-08-22T06:37:24.878Z,2856.00
2018-08-22T06:38:24.839Z,3216.00
2018-08-22T06:39:24.844Z,2792.00
2018-08-22T06:40:24.847Z,2860.00
2018-08-22T06:41:24.864Z,3272.00
2018-08-22T06:42:24.858Z,2876.00
2018-08-22T06:43:24.861Z,2288.00
2018-08-22T06:44:24.871Z,1776.00
2018-08-22T06:45:24.867Z,2620.00
2018-08-22T06:46:24.876Z,2304.00
2018-08-22T06:47:24.877Z,1672.00
2018-08-22T06:48:24.881Z,1636.00
2018-08-22T06:49:24.889Z,1644.00
2018-08-22T06:50:24.906Z,1680.00
2018-08-22T06:51:24.893Z,1684.00
2018-08-22T06:52:24.900Z,1688.00
2018-08-22T06:53:24.906Z,1716.00
2018-08-22T06:54:24.910Z,1772.00
2018-08-22T06:55:24.912Z,1832.00
2018-08-22T06:56:24.918Z,1908.00
2018-08-22T06:57:24.929Z,1968.00
2018-08-22T06:58:24.927Z,2024.00
2018-08-22T06:59:24.953Z,2048.00
2018-08-22T07:00:24.936Z,2088.00
2018-08-22T07:01:24.949Z,2112.00
2018-08-22T07:02:24.950Z,2200.00
2018-08-22T07:03:24.947Z,2488.00
2018-08-22T07:04:24.954Z,3052.00
2018-08-22T07:05:24.955Z,3352.00
2018-08-22T07:06:24.962Z,3376.00
2018-08-22T07:07:24.973Z,2688.00
2018-08-22T07:08:24.969Z,3216.00
2018-08-22T07:09:24.974Z,2872.00
2018-08-22T07:10:24.980Z,4060.00
2018-08-22T07:11:25.032Z,4820.00
2018-08-22T07:12:26.674Z,4844.00
2018-08-22T07:13:24.996Z,4076.00
2018-08-22T07:14:25.079Z,3164.00
2018-08-22T07:15:25.001Z,3300.00
2018-08-22T07:16:25.016Z,4268.00
2018-08-22T07:17:25.029Z,5040.00
2018-08-22T07:18:25.018Z,4964.00
2018-08-22T07:19:25.029Z,5112.00
2018-08-22T07:20:25.027Z,5288.00
2018-08-22T07:21:25.035Z,5384.00
2018-08-22T07:22:25.058Z,5600.00
2018-08-22T07:23:25.047Z,5716.00
2018-08-22T07:24:25.050Z,5920.00
2018-08-22T07:25:25.053Z,5952.00
2018-08-22T07:26:25.058Z,6032.00
2018-08-22T07:27:25.063Z,5820.00
2018-08-22T07:28:25.072Z,5744.00
2018-08-22T07:29:25.078Z,4016.00
2018-08-22T07:30:25.082Z,6424.00
2018-08-22T07:31:25.089Z,6380.00
2018-08-22T07:32:25.095Z,4796.00
2018-08-22T07:33:25.124Z,4404.00
2018-08-22T07:34:25.136Z,5832.00
2018-08-22T07:35:25.129Z,5368.00
2018-08-22T07:36:25.117Z,5708.00
2018-08-22T07:37:25.124Z,5840.00
2018-08-22T07:38:25.134Z,6564.00
2018-08-22T07:39:25.137Z,7060.00
2018-08-22T07:40:25.146Z,7220.00
2018-08-22T07:41:25.180Z,7160.00
2018-08-22T07:42:25.160Z,7256.00
2018-08-22T07:43:25.164Z,7340.00
2018-08-22T07:44:25.176Z,5492.00
2018-08-22T07:45:25.176Z,4700.00
2018-08-22T07:46:25.192Z,7388.00
2018-08-22T07:47:25.191Z,7988.00
2018-08-22T07:48:25.197Z,8012.00
2018-08-22T07:49:25.211Z,8096.00
2018-08-22T07:50:25.310Z,6492.00
2018-08-22T07:51:25.231Z,8308.00
2018-08-22T07:52:25.227Z,8424.00
2018-08-22T07:53:25.249Z,8556.00
2018-08-22T07:54:25.242Z,8540.00
2018-08-22T07:55:25.252Z,8412.00
2018-08-22T07:56:25.259Z,8224.00
2018-08-22T07:57:25.266Z,8268.00
2018-08-22T07:58:25.278Z,8112.00
2018-08-22T07:59:25.297Z,8196.00
2018-08-22T08:00:25.312Z,7480.00
2018-08-22T08:01:25.305Z,8032.00
2018-08-22T08:02:25.315Z,8252.00
2018-08-22T08:03:25.321Z,8452.00
2018-08-22T08:04:25.332Z,8472.00
2018-08-22T08:05:25.414Z,8256.00
2018-08-22T08:06:25.344Z,8284.00
2018-08-22T08:07:25.383Z,8620.00
2018-08-22T08:08:25.368Z,8664.00
2018-08-22T08:09:25.404Z,8972.00
2018-08-22T08:10:25.409Z,8996.00
2018-08-22T08:11:25.406Z,8460.00
2018-08-22T08:12:25.418Z,8656.00
2018-08-22T08:13:25.421Z,8636.00
2018-08-22T08:14:25.418Z,8884.00
2018-08-22T08:15:25.429Z,9884.00
2018-08-22T08:16:25.439Z,9864.00
2018-08-22T08:17:25.446Z,10196.00
2018-08-22T08:18:25.456Z,11676.00
2018-08-22T08:19:25.468Z,12084.00
2018-08-22T08:20:25.477Z,13588.00
2018-08-22T08:21:25.484Z,13920.00
2018-08-22T08:22:25.522Z,12936.00
2018-08-22T08:23:25.508Z,12676.00
2018-08-22T08:24:25.516Z,12360.00
2018-08-22T08:25:25.525Z,11392.00
2018-08-22T08:26:25.552Z,11540.00
2018-08-22T08:27:25.544Z,10548.00
2018-08-22T08:28:25.552Z,10588.00
2018-08-22T08:29:25.583Z,10536.00
2018-08-22T08:30:25.603Z,10776.00
2018-08-22T08:31:25.583Z,11712.00
2018-08-22T08:32:25.591Z,11484.00
2018-08-22T08:33:25.620Z,11640.00
2018-08-22T08:34:25.609Z,10616.00
2018-08-22T08:35:25.624Z,10864.00
2018-08-22T08:36:25.658Z,10272.00
2018-08-22T08:37:25.639Z,10556.00
2018-08-22T08:38:25.667Z,10416.00
2018-08-22T08:39:25.659Z,11608.00
2018-08-22T08:40:25.670Z,11940.00
2018-08-22T08:41:25.684Z,11876.00
2018-08-22T08:42:25.692Z,12136.00
2018-08-22T08:43:25.764Z,11808.00
2018-08-22T08:44:25.738Z,12304.00
2018-08-22T08:45:25.722Z,12020.00
2018-08-22T08:46:25.732Z,12660.00
2018-08-22T08:47:25.742Z,12296.00
2018-08-22T08:48:25.750Z,11880.00
2018-08-22T08:49:25.907Z,13484.00
2018-08-22T08:50:25.773Z,13804.00
2018-08-22T08:51:25.791Z,13724.00
2018-08-22T08:52:25.796Z,14024.00
2018-08-22T08:53:25.806Z,14072.00
2018-08-22T08:54:25.874Z,13992.00
2018-08-22T08:55:25.831Z,13876.00
2018-08-22T08:56:25.842Z,13880.00
2018-08-22T08:57:25.981Z,13828.00
2018-08-22T08:58:25.869Z,14112.00
2018-08-22T08:59:25.898Z,13232.00
2018-08-22T09:00:25.887Z,12084.00
2018-08-22T09:01:25.897Z,12736.00
2018-08-22T09:02:25.912Z,13144.00
2018-08-22T09:03:25.926Z,13708.00
2018-08-22T09:04:25.939Z,14336.00
2018-08-22T09:05:25.980Z,13896.00
2018-08-22T09:06:25.980Z,13940.00
2018-08-22T09:07:26.012Z,14656.00
2018-08-22T09:08:26.035Z,14048.00
2018-08-22T09:09:26.046Z,15744.00
2018-08-22T09:10:26.061Z,15744.00
2018-08-22T09:11:26.051Z,17152.00
2018-08-22T09:12:26.080Z,17408.00
2018-08-22T09:13:26.069Z,17024.00
2018-08-22T09:14:26.090Z,16288.00
2018-08-22T09:15:26.156Z,15712.00
2018-08-22T09:16:26.128Z,15360.00
2018-08-22T09:17:26.151Z,14880.00
2018-08-22T09:18:26.135Z,14496.00
2018-08-22T09:19:26.130Z,13900.00
2018-08-22T09:20:26.150Z,13612.00
2018-08-22T09:21:26.169Z,14356.00
2018-08-22T09:22:26.168Z,14280.00
2018-08-22T09:23:26.183Z,14040.00
2018-08-22T09:24:26.225Z,13836.00
2018-08-22T09:25:26.209Z,13796.00
2018-08-22T09:26:26.220Z,13740.00
2018-08-22T09:27:26.238Z,13420.00
2018-08-22T09:28:26.250Z,12228.00
2018-08-22T09:29:26.307Z,12544.00
2018-08-22T09:30:26.274Z,12284.00
2018-08-22T09:31:26.292Z,12580.00
2018-08-22T09:32:26.303Z,12956.00
2018-08-22T09:33:26.317Z,12980.00
2018-08-22T09:34:26.360Z,12924.00
2018-08-22T09:35:26.417Z,12924.00
2018-08-22T09:36:26.354Z,12756.00
2018-08-22T09:37:26.368Z,12468.00
2018-08-22T09:38:26.380Z,12036.00
2018-08-22T09:39:26.489Z,12060.00
2018-08-22T09:40:26.407Z,11856.00
2018-08-22T09:41:26.416Z,11780.00
2018-08-22T09:42:26.426Z,13312.00
2018-08-22T09:43:26.466Z,15552.00
2018-08-22T09:44:26.461Z,11320.00
2018-08-22T09:45:26.486Z,8340.00
2018-08-22T09:46:26.480Z,7636.00
2018-08-22T09:47:26.487Z,7164.00
2018-08-22T09:48:26.500Z,6868.00
2018-08-22T09:49:26.512Z,6440.00
2018-08-22T09:50:26.519Z,6096.00
2018-08-22T09:51:26.532Z,5952.00
2018-08-22T09:52:26.545Z,5892.00
2018-08-22T09:53:26.555Z,5864.00
2018-08-22T09:54:26.567Z,5820.00
2018-08-22T09:55:26.579Z,5972.00
2018-08-22T09:56:26.589Z,6092.00
2018-08-22T09:57:26.596Z,6100.00
2018-08-22T09:58:26.614Z,6088.00
2018-08-22T09:59:26.638Z,5796.00
2018-08-22T10:00:26.629Z,5536.00
2018-08-22T10:01:26.658Z,6008.00
2018-08-22T10:02:26.649Z,6008.00
2018-08-22T10:03:26.658Z,6084.00
2018-08-22T10:04:26.668Z,6040.00
2018-08-22T10:05:26.680Z,5956.00
2018-08-22T10:06:26.776Z,6120.00
2018-08-22T10:07:26.743Z,6064.00
2018-08-22T10:08:26.714Z,5928.00
2018-08-22T10:09:26.719Z,5996.00
2018-08-22T10:10:26.737Z,5824.00
2018-08-22T10:11:26.737Z,5480.00
2018-08-22T10:12:26.746Z,5772.00
2018-08-22T10:13:26.756Z,5672.00
2018-08-22T10:14:26.789Z,5704.00
2018-08-22T10:15:26.778Z,5928.00
2018-08-22T10:16:26.812Z,5952.00
2018-08-22T10:17:26.807Z,5908.00
2018-08-22T10:18:26.803Z,5532.00
2018-08-22T10:19:26.816Z,4916.00
2018-08-22T10:20:26.828Z,4772.00
2018-08-22T10:21:26.841Z,4628.00
2018-08-22T10:22:26.847Z,4628.00
2018-08-22T10:23:26.859Z,5288.00
2018-08-22T10:24:26.869Z,5828.00
2018-08-22T10:25:26.875Z,5888.00
2018-08-22T10:26:26.910Z,5868.00
2018-08-22T10:27:26.899Z,5488.00
2018-08-22T10:28:26.904Z,5432.00
2018-08-22T10:29:26.936Z,5656.00
2018-08-22T10:30:26.925Z,5836.00
2018-08-22T10:31:26.933Z,5580.00
2018-08-22T10:32:26.944Z,5640.00
2018-08-22T10:33:26.957Z,5648.00
2018-08-22T10:34:26.958Z,5520.00
2018-08-22T10:35:26.985Z,5428.00
2018-08-22T10:36:26.978Z,5104.00
2018-08-22T10:37:27.037Z,4888.00
2018-08-22T10:38:27.015Z,4820.00
2018-08-22T10:39:27.161Z,4788.00
2018-08-22T10:40:27.024Z,5056.00
2018-08-22T10:41:27.029Z,5152.00
2018-08-22T10:42:27.037Z,5364.00
2018-08-22T10:43:27.047Z,5312.00
2018-08-22T10:44:27.112Z,5260.00
2018-08-22T10:45:27.064Z,4844.00
2018-08-22T10:46:27.076Z,4972.00
2018-08-22T10:47:27.086Z,4668.00
2018-08-22T10:48:27.124Z,4896.00
2018-08-22T10:49:27.124Z,4080.00
2018-08-22T10:50:27.147Z,4712.00
2018-08-22T10:51:27.125Z,4720.00
2018-08-22T10:52:27.137Z,4940.00
2018-08-22T10:53:27.144Z,5068.00
2018-08-22T10:54:27.180Z,5024.00
2018-08-22T10:55:27.178Z,4832.00
2018-08-22T10:56:27.170Z,4844.00
2018-08-22T10:57:27.180Z,4868.00
2018-08-22T10:58:27.190Z,4904.00
2018-08-22T10:59:27.203Z,4968.00
2018-08-22T11:00:27.211Z,5064.00
2018-08-22T11:01:27.218Z,4868.00
2018-08-22T11:02:27.229Z,4552.00
2018-08-22T11:03:27.241Z,4200.00
2018-08-22T11:04:27.245Z,4088.00
2018-08-22T11:05:27.258Z,3984.00
2018-08-22T11:06:27.267Z,4124.00
2018-08-22T11:07:27.280Z,4212.00
2018-08-22T11:08:27.286Z,4140.00
2018-08-22T11:09:27.297Z,4200.00
2018-08-22T11:10:27.308Z,4360.00
2018-08-22T11:11:27.320Z,4448.00
2018-08-22T11:12:27.329Z,4300.00
2018-08-22T11:13:27.340Z,4280.00
2018-08-22T11:14:27.366Z,3128.00
2018-08-22T11:15:27.354Z,3216.00
2018-08-22T11:16:27.368Z,3300.00
2018-08-22T11:17:27.371Z,3240.00
2018-08-22T11:18:27.384Z,3156.00
2018-08-22T11:19:27.391Z,3264.00
2018-08-22T11:20:27.430Z,3432.00
2018-08-22T11:21:27.410Z,3468.00
2018-08-22T11:22:27.486Z,4616.00
2018-08-22T11:23:27.433Z,3320.00
2018-08-22T11:24:27.438Z,3192.00
2018-08-22T11:25:27.451Z,3172.00
2018-08-22T11:26:27.455Z,3996.00
2018-08-22T11:27:27.466Z,4408.00
2018-08-22T11:28:27.476Z,4244.00
2018-08-22T11:29:27.489Z,3884.00
2018-08-22T11:30:27.526Z,3180.00
2018-08-22T11:31:27.511Z,3068.00
2018-08-22T11:32:27.513Z,3044.00
2018-08-22T11:33:27.527Z,3124.00
2018-08-22T11:34:27.576Z,3144.00
2018-08-22T11:35:27.541Z,3124.00
2018-08-22T11:36:27.551Z,2996.00
2018-08-22T11:37:27.560Z,2972.00
2018-08-22T11:38:27.567Z,3060.00
2018-08-22T11:39:27.576Z,3824.00
2018-08-22T11:40:27.585Z,4052.00
2018-08-22T11:41:27.592Z,2884.00
2018-08-22T11:42:27.603Z,2852.00
2018-08-22T11:43:27.640Z,3512.00
2018-08-22T11:44:27.619Z,3576.00
2018-08-22T11:45:27.657Z,3576.00
2018-08-22T11:46:27.636Z,3760.00
2018-08-22T11:47:27.658Z,3984.00
2018-08-22T11:48:27.655Z,4036.00
2018-08-22T11:49:27.662Z,4040.00
2018-08-22T11:50:27.680Z,3820.00
2018-08-22T11:51:27.703Z,4020.00
2018-08-22T11:52:27.693Z,4032.00
2018-08-22T11:53:27.696Z,3928.00
2018-08-22T11:54:27.707Z,3748.00
2018-08-22T11:55:27.715Z,3960.00
2018-08-22T11:56:27.725Z,3936.00
2018-08-22T11:57:27.731Z,3780.00
2018-08-22T11:58:27.742Z,3744.00
2018-08-22T11:59:27.754Z,3676.00
2018-08-22T12:00:27.761Z,2792.00
2018-08-22T12:01:27.793Z,3028.00
2018-08-22T12:02:27.783Z,3824.00
2018-08-22T12:03:27.788Z,3668.00
2018-08-22T12:04:27.797Z,3284.00
2018-08-22T12:05:27.818Z,3736.00
2018-08-22T12:06:27.812Z,3940.00
2018-08-22T12:07:27.824Z,3948.00
2018-08-22T12:08:27.836Z,3996.00
2018-08-22T12:09:27.861Z,3728.00
2018-08-22T12:10:27.908Z,3396.00
2018-08-22T12:11:27.861Z,2548.00
2018-08-22T12:12:27.874Z,2436.00
2018-08-22T12:13:27.890Z,2408.00
2018-08-22T12:14:27.885Z,2352.00
2018-08-22T12:15:27.894Z,2332.00
2018-08-22T12:16:27.954Z,2308.00
2018-08-22T12:17:27.922Z,2320.00
2018-08-22T12:18:27.932Z,3144.00
2018-08-22T12:19:27.937Z,2432.00
2018-08-22T12:20:27.946Z,2532.00
2018-08-22T12:21:27.972Z,2552.00
2018-08-22T12:22:27.966Z,2492.00
2018-08-22T12:23:28.045Z,2464.00
2018-08-22T12:24:29.777Z,2480.00
2018-08-22T12:25:27.983Z,2520.00
2018-08-22T12:26:27.992Z,2480.00
2018-08-22T12:27:28.029Z,2528.00
2018-08-22T12:28:35.248Z,3380.00
2018-08-22T12:30:21.564Z,3444.00
2018-08-22T12:31:21.630Z,3484.00
2018-08-22T12:33:14.460Z,2660.00
2018-08-22T12:34:14.393Z,2688.00
2018-08-22T12:36:07.389Z,2676.00
2018-08-22T12:37:07.326Z,2644.00
2018-08-22T12:39:00.479Z,2532.00